ADDS TAF Board (Experimental) INFO Settings

IDs: Format: Expanded Condensed

KLAX - Los Angeles Intl, CA, US

Issued at 1505 UTC 28 Apr 2015
Updated at: 1556 UTC 28 Apr 2015
Time1553Z 28/16Z 28/17Z 28/18Z 28/19Z 28/20Z 28/21Z 28/22Z 28/23Z 29/00Z 29/01Z 29/02Z 29/03Z 29/04Z
Type OBS PRVL PRVL PRVL PRVL PRVL PRVL PRVL PRVL PRVL PRVL PRVL PRVL PRVL
VIS 10 >6 >6 >6 >6 >6 >6 >6 >6 >6 >6 >6 >6 >6
CIG -- -- -- -- -- -- -- -- -- -- -- -- -- --
Cover FEW FEW SKC SKC SKC SKC SKC SKC SKC SKC SKC SKC SKC SKC
FltCat VFR VFR VFR VFR VFR VFR VFR VFR VFR VFR VFR VFR VFR VFR
WX -- -- -- -- -- -- -- -- -- -- -- -- -- --
WDir 70 90 250 250 260 260 260 260 260 260 260 260 260 260
WSpd 5 3 7 7 12 12 12 12 12 12 12 12 12 12
WGst -- -- -- -- -- -- -- -- -- -- -- -- -- --
R06/24
XWnd 1 -0 -2 -2 -1 -1 -1 -1 -1 -1 -1 -1 -1 -1
HWnd 5 3 -7 -7 -12 -12 -12 -12 -12 -12 -12 -12 -12 -12
R07/25
XWnd 1 -0 -2 -2 -1 -1 -1 -1 -1 -1 -1 -1 -1 -1
HWnd 5 3 -7 -7 -12 -12 -12 -12 -12 -12 -12 -12 -12 -12

NOTE: TEMPO conditions in [brackets]. Keep in mind TEMPO conditions might be better (lower impact) than prevailing conditions.

Raw TAF
KLAX 281505Z 2815/2918 09003KT P6SM FEW017
  FM281700 25007KT P6SM SKC
  FM281900 26012KT P6SM SKC
  FM290500 VRB05KT P6SM SKC


Raw METAR
KLAX 281553Z 07005KT 10SM FEW018 23/02 A2995 RMK AO2 SLP141 T02330017
KLAX 281453Z 09003KT 10SM FEW017 20/03 A2995 RMK AO2 SLP142 T02000033 53007
KLAX 281353Z 04005KT 10SM CLR 17/04 A2995 RMK AO2 SLP139 T01720039
KLAX 281253Z 04004KT 10SM CLR 17/04 A2994 RMK AO2 SLP135 T01670039

METAR Board
Radar Display
Forecast Discussion

TAF Board Legend

Potential Impact
Threat None Slight Moderate High
Visibility (sm) ≥5.1 5.1>X≥3 3>X≥1 <1
Ceiling (100 ft) ≥30.1 30.1>X≥10 10>X≥5 <5
Wind Speed (kt) <10 10≤X<20 20≤X<30 ≥30
Wind Gust (kt) <15 15≤X<25 25≤X<35 ≥35
Weather No Wx Reported VCTS,-TS,-FZRA,SN TS,FZRA +TS,+FZRA,+SN